createdAt,value
2019-02-21T00:04:13.518Z,3.77
2019-02-21T00:06:24.315Z,3.79
2019-02-21T00:08:35.168Z,3.79
2019-02-21T00:10:46.094Z,3.77
2019-02-21T00:13:16.765Z,3.69
2019-02-21T00:15:27.583Z,3.69
2019-02-21T00:17:38.388Z,3.64
2019-02-21T00:19:49.213Z,3.57
2019-02-21T00:22:00.009Z,3.47
2019-02-21T00:24:10.849Z,3.33
2019-02-21T00:26:21.664Z,3.24
2019-02-21T00:28:32.471Z,3.20
2019-02-21T00:30:43.300Z,3.21
2019-02-21T00:32:54.081Z,3.14
2019-02-21T00:35:05.023Z,3.11
2019-02-21T00:37:15.801Z,3.16
2019-02-21T00:39:26.603Z,3.21
2019-02-21T00:41:37.421Z,3.21
2019-02-21T00:43:48.229Z,3.22
2019-02-21T00:45:59.058Z,3.25
2019-02-21T00:48:09.970Z,3.29
2019-02-21T00:50:20.788Z,3.24
2019-02-21T00:52:31.621Z,3.19
2019-02-21T00:54:42.393Z,3.04
2019-02-21T00:56:53.207Z,3.00
2019-02-21T00:59:04.008Z,3.00
2019-02-21T01:01:14.836Z,3.02
2019-02-21T01:03:25.650Z,3.07
2019-02-21T01:05:36.449Z,3.07
2019-02-21T01:07:47.418Z,3.09
2019-02-21T01:09:58.288Z,3.12
2019-02-21T01:12:09.109Z,3.09
2019-02-21T01:14:19.931Z,3.04
2019-02-21T01:16:30.786Z,3.04
2019-02-21T01:18:41.555Z,2.96
2019-02-21T01:20:52.370Z,2.88
2019-02-21T01:23:03.212Z,2.83
2019-02-21T01:25:55.636Z,2.83
2019-02-21T01:28:06.453Z,2.90
2019-02-21T01:30:17.263Z,2.88
2019-02-21T01:32:28.068Z,2.79
2019-02-21T01:34:38.892Z,2.74
2019-02-21T01:36:49.710Z,2.65
2019-02-21T01:39:00.511Z,2.56
2019-02-21T01:41:11.302Z,2.60
2019-02-21T01:43:22.112Z,2.55
2019-02-21T01:45:32.907Z,2.56
2019-02-21T01:47:43.717Z,2.57
2019-02-21T01:49:54.523Z,2.58
2019-02-21T01:52:05.335Z,2.54
2019-02-21T01:54:16.122Z,2.48
2019-02-21T01:56:26.934Z,2.44
2019-02-21T01:58:37.771Z,2.44
2019-02-21T02:00:48.564Z,2.40
2019-02-21T02:02:59.381Z,2.41
2019-02-21T02:05:10.277Z,2.40
2019-02-21T02:07:21.070Z,2.44
2019-02-21T02:09:31.984Z,2.48
2019-02-21T02:11:42.795Z,2.50
2019-02-21T02:13:53.634Z,2.51
2019-02-21T02:16:04.450Z,2.52
2019-02-21T02:18:15.282Z,2.53
2019-02-21T02:20:26.087Z,2.54
2019-02-21T02:22:36.892Z,2.49
2019-02-21T02:24:47.726Z,2.48
2019-02-21T02:26:58.511Z,2.46
2019-02-21T02:29:09.322Z,2.45
2019-02-21T02:31:23.397Z,2.46
2019-02-21T02:33:32.868Z,2.46
2019-02-21T02:35:43.649Z,2.50
2019-02-21T02:37:54.505Z,2.52
2019-02-21T02:40:46.960Z,2.56
2019-02-21T02:42:57.788Z,2.58
2019-02-21T02:45:08.576Z,2.55
2019-02-21T02:47:19.357Z,2.52
2019-02-21T02:49:30.195Z,2.42
2019-02-21T02:51:40.981Z,2.34
2019-02-21T02:53:51.828Z,2.26
2019-02-21T02:56:02.844Z,2.22
2019-02-21T02:58:15.378Z,2.26
2019-02-21T03:00:26.184Z,2.27
2019-02-21T03:02:36.979Z,2.29
2019-02-21T03:04:47.825Z,2.28
2019-02-21T03:06:58.650Z,2.18
2019-02-21T03:11:41.821Z,2.23
2019-02-21T03:13:52.613Z,2.24
2019-02-21T03:16:03.568Z,2.25
2019-02-21T03:18:14.343Z,2.22
2019-02-21T03:20:25.215Z,2.23
2019-02-21T03:22:36.002Z,2.28
2019-02-21T03:24:46.812Z,2.35
2019-02-21T03:26:57.623Z,2.41
2019-02-21T03:29:08.410Z,2.49
2019-02-21T03:31:19.232Z,2.56
2019-02-21T03:33:30.036Z,2.66
2019-02-21T03:35:40.858Z,2.68
2019-02-21T03:37:51.689Z,2.62
2019-02-21T03:40:44.128Z,2.56
2019-02-21T03:43:36.564Z,2.46
2019-02-21T03:45:47.391Z,2.38
2019-02-21T03:47:58.178Z,2.42
2019-02-21T03:50:50.661Z,2.47
2019-02-21T03:53:01.483Z,2.46
2019-02-21T03:55:12.296Z,2.39
2019-02-21T03:57:23.116Z,2.31
2019-02-21T03:59:33.923Z,2.29
2019-02-21T04:01:44.741Z,2.33
2019-02-21T04:03:55.640Z,2.36
2019-02-21T04:06:06.529Z,2.36
2019-02-21T04:08:17.451Z,2.34
2019-02-21T04:10:28.263Z,2.33
2019-02-21T04:12:39.085Z,2.39
2019-02-21T04:14:49.874Z,2.36
2019-02-21T04:17:00.692Z,2.37
2019-02-21T04:19:11.486Z,2.40
2019-02-21T04:21:22.305Z,2.40
2019-02-21T04:23:33.125Z,2.43
2019-02-21T04:25:43.931Z,2.41
2019-02-21T04:27:54.751Z,2.42
2019-02-21T04:30:47.187Z,2.41
2019-02-21T04:32:58.105Z,2.43
2019-02-21T04:35:08.913Z,2.41
2019-02-21T04:37:19.700Z,2.38
2019-02-21T04:39:30.525Z,2.42
2019-02-21T04:41:41.324Z,2.32
2019-02-21T04:43:52.130Z,2.31
2019-02-21T04:46:02.915Z,2.34
2019-02-21T04:48:13.748Z,2.37
2019-02-21T04:50:24.558Z,2.42
2019-02-21T04:52:35.345Z,2.49
2019-02-21T04:54:46.176Z,2.59
2019-02-21T04:56:56.970Z,2.69
2019-02-21T04:59:07.802Z,2.80
2019-02-21T05:01:18.596Z,2.82
2019-02-21T05:03:29.418Z,2.82
2019-02-21T05:05:40.222Z,2.83
2019-02-21T05:07:51.015Z,3.27
2019-02-21T05:10:43.490Z,4.18
2019-02-21T05:12:54.281Z,4.63
2019-02-21T05:15:05.299Z,4.60
2019-02-21T05:17:16.116Z,4.24
2019-02-21T05:19:26.917Z,4.00
2019-02-21T05:21:37.753Z,3.83
2019-02-21T05:23:48.547Z,3.66
2019-02-21T05:25:59.364Z,3.51
2019-02-21T05:28:51.848Z,3.39
2019-02-21T05:33:44.741Z,3.39
2019-02-21T05:38:38.077Z,3.44
2019-02-21T05:41:08.790Z,3.47
2019-02-21T05:48:30.498Z,3.38
2019-02-21T05:53:23.158Z,3.32
2019-02-21T05:58:12.951Z,3.33
2019-02-21T06:00:43.626Z,3.39
2019-02-21T06:05:46.707Z,3.49
2019-02-21T06:08:17.448Z,3.53
2019-02-21T06:13:20.483Z,3.54
2019-02-21T06:15:51.183Z,3.54
2019-02-21T06:20:40.888Z,3.59
2019-02-21T06:27:52.484Z,3.68
2019-02-21T06:30:44.901Z,3.68
2019-02-21T06:33:04.425Z,3.70
2019-02-21T06:35:50.059Z,3.77
2019-02-21T06:38:00.873Z,3.83
2019-02-21T06:40:11.684Z,3.89
2019-02-21T06:42:22.495Z,3.96
2019-02-21T06:44:33.296Z,3.98
2019-02-21T06:46:44.082Z,4.02
2019-02-21T06:48:54.910Z,4.01
2019-02-21T06:51:05.713Z,4.03
2019-02-21T06:53:16.513Z,4.05
2019-02-21T06:55:27.305Z,4.10
2019-02-21T06:57:38.129Z,4.15
2019-02-21T06:59:48.973Z,4.26
2019-02-21T07:01:59.763Z,4.37
2019-02-21T07:04:10.575Z,4.41
2019-02-21T07:06:31.483Z,4.38
2019-02-21T07:08:34.121Z,4.45
2019-02-21T07:10:44.955Z,4.48
2019-02-21T07:12:55.860Z,4.46
2019-02-21T07:15:48.294Z,4.47
2019-02-21T07:17:59.163Z,4.46
2019-02-21T07:20:09.996Z,4.47
2019-02-21T07:22:22.286Z,4.49
2019-02-21T07:26:52.406Z,4.56
2019-02-21T07:29:03.237Z,4.61
2019-02-21T07:31:14.041Z,4.65
2019-02-21T07:33:28.725Z,4.68
2019-02-21T07:35:37.565Z,4.71
2019-02-21T07:37:48.374Z,4.74
2019-02-21T07:39:59.226Z,4.77
2019-02-21T07:42:10.065Z,4.86
2019-02-21T07:44:20.868Z,4.91
2019-02-21T07:46:32.456Z,4.95
2019-02-21T07:48:44.413Z,5.05
2019-02-21T07:50:55.237Z,5.13
2019-02-21T07:53:06.035Z,5.36
2019-02-21T07:55:16.896Z,5.78
2019-02-21T07:57:27.676Z,6.33
2019-02-21T07:59:38.545Z,6.85
2019-02-21T08:01:49.285Z,7.29
2019-02-21T08:04:00.104Z,7.64
2019-02-21T08:06:10.960Z,7.98
2019-02-21T08:08:21.752Z,8.25
2019-02-21T08:10:33.898Z,8.47
2019-02-21T08:12:45.319Z,8.73
2019-02-21T08:14:56.418Z,8.98
2019-02-21T08:17:08.860Z,9.26
2019-02-21T08:19:19.648Z,9.59
2019-02-21T08:21:30.497Z,9.94
2019-02-21T08:23:49.990Z,10.28
2019-02-21T08:25:54.043Z,10.32
2019-02-21T08:28:04.875Z,10.13
2019-02-21T08:30:15.800Z,9.93
2019-02-21T08:37:04.108Z,9.45
2019-02-21T08:39:14.889Z,9.59
2019-02-21T08:41:25.981Z,10.14
2019-02-21T08:43:37.371Z,10.52
2019-02-21T08:45:49.528Z,10.62
2019-02-21T08:48:00.373Z,10.63
2019-02-21T08:50:11.285Z,10.74
2019-02-21T08:52:22.121Z,10.92
2019-02-21T08:54:32.908Z,10.96
2019-02-21T08:56:43.745Z,10.95
2019-02-21T08:58:54.567Z,10.89
2019-02-21T09:01:05.373Z,11.09
2019-02-21T09:03:18.113Z,11.50
2019-02-21T09:05:28.998Z,11.84
2019-02-21T09:08:32.679Z,12.09
2019-02-21T09:10:34.182Z,12.36
2019-02-21T09:12:48.239Z,12.58
2019-02-21T09:14:57.697Z,12.75
2019-02-21T09:17:08.537Z,13.00
2019-02-21T09:19:19.330Z,13.04
2019-02-21T09:21:30.125Z,13.13
2019-02-21T09:23:40.950Z,13.17
2019-02-21T09:25:51.778Z,13.41
2019-02-21T09:28:02.691Z,13.60
2019-02-21T09:30:55.143Z,13.86
2019-02-21T09:33:16.641Z,13.94
2019-02-21T09:35:18.745Z,13.68
2019-02-21T09:37:29.592Z,13.43
2019-02-21T09:39:40.351Z,13.07
2019-02-21T09:41:51.244Z,12.74
2019-02-21T09:44:02.152Z,12.58
2019-02-21T09:46:13.049Z,12.59
2019-02-21T09:48:23.823Z,12.78
2019-02-21T09:50:34.638Z,13.17
2019-02-21T09:52:45.434Z,13.52
2019-02-21T09:54:56.248Z,13.61
2019-02-21T09:57:13.339Z,13.59
2019-02-21T09:59:19.763Z,13.58
2019-02-21T10:01:30.588Z,13.80
2019-02-21T10:03:44.005Z,13.89
2019-02-21T10:05:54.156Z,13.96
2019-02-21T10:08:04.969Z,13.94
2019-02-21T10:10:35.677Z,13.90
2019-02-21T10:12:46.535Z,14.08
2019-02-21T10:14:57.344Z,14.41
2019-02-21T10:17:08.169Z,14.50
2019-02-21T10:19:18.969Z,14.48
2019-02-21T10:21:29.906Z,14.46
2019-02-21T10:23:42.201Z,14.37
2019-02-21T10:25:53.477Z,14.41
2019-02-21T10:28:04.323Z,14.33
2019-02-21T10:30:56.784Z,14.19
2019-02-21T10:33:07.581Z,14.20
2019-02-21T10:35:18.579Z,14.18
2019-02-21T10:37:29.380Z,14.17
2019-02-21T10:39:40.177Z,14.10
2019-02-21T10:41:51.015Z,14.08
2019-02-21T10:44:01.818Z,14.14
2019-02-21T10:46:12.633Z,14.13
2019-02-21T10:48:23.422Z,14.03
2019-02-21T10:50:34.307Z,14.00
2019-02-21T10:52:45.104Z,13.91
2019-02-21T10:54:55.892Z,13.81
2019-02-21T10:57:06.727Z,13.83
2019-02-21T10:59:24.219Z,13.90
2019-02-21T11:01:35.036Z,13.98
2019-02-21T11:03:45.814Z,14.00
2019-02-21T11:05:56.763Z,14.01
2019-02-21T11:08:07.590Z,13.88
2019-02-21T11:10:38.243Z,13.85
2019-02-21T11:12:49.053Z,13.89
2019-02-21T11:14:59.855Z,13.92
2019-02-21T11:17:10.684Z,13.98
2019-02-21T11:19:21.546Z,14.12
2019-02-21T11:21:32.401Z,14.17
2019-02-21T11:23:43.217Z,14.34
2019-02-21T11:25:54.038Z,14.55
2019-02-21T11:28:04.875Z,14.78
2019-02-21T11:30:57.319Z,14.90
2019-02-21T11:33:08.266Z,15.06
2019-02-21T11:35:19.056Z,15.24
2019-02-21T11:37:29.862Z,15.37
2019-02-21T11:39:40.685Z,15.33
2019-02-21T11:41:51.533Z,15.30
2019-02-21T11:44:02.411Z,15.29
2019-02-21T11:46:13.214Z,15.20
2019-02-21T11:48:24.054Z,15.13
2019-02-21T11:50:34.846Z,15.00
2019-02-21T11:53:27.323Z,14.97
2019-02-21T11:55:38.207Z,15.05
2019-02-21T11:57:49.178Z,15.16
2019-02-21T11:59:59.993Z,15.27
2019-02-21T12:02:10.790Z,15.37
2019-02-21T12:04:24.307Z,15.42
2019-02-21T12:06:34.342Z,15.36
2019-02-21T12:08:45.141Z,15.31
2019-02-21T12:10:55.934Z,15.22
2019-02-21T12:13:06.736Z,15.12
2019-02-21T12:15:17.561Z,14.97
2019-02-21T12:17:28.391Z,14.82
2019-02-21T12:19:39.220Z,14.81
2019-02-21T12:21:58.670Z,14.87
2019-02-21T12:24:02.848Z,15.01
2019-02-21T12:26:13.681Z,15.13
2019-02-21T12:28:24.484Z,15.19
2019-02-21T12:30:35.322Z,15.25
2019-02-21T12:32:46.218Z,15.21
2019-02-21T12:34:57.112Z,15.18
2019-02-21T12:37:07.921Z,15.18
2019-02-21T12:39:18.755Z,15.17
2019-02-21T12:41:29.539Z,15.19
2019-02-21T12:43:40.336Z,15.25
2019-02-21T12:46:32.825Z,15.26
2019-02-21T12:48:43.658Z,15.21
2019-02-21T12:50:54.610Z,15.17
2019-02-21T12:53:05.413Z,15.11
2019-02-21T12:55:27.286Z,15.11
2019-02-21T12:57:29.050Z,15.09
2019-02-21T12:59:39.853Z,15.06
2019-02-21T13:01:50.681Z,15.01
2019-02-21T13:04:01.495Z,14.96
2019-02-21T13:06:12.525Z,14.95
2019-02-21T13:08:23.335Z,14.92
2019-02-21T13:10:34.976Z,14.93
2019-02-21T13:12:46.865Z,14.91
2019-02-21T13:14:57.679Z,14.95
2019-02-21T13:17:08.506Z,14.84
2019-02-21T13:19:19.331Z,14.68
2019-02-21T13:21:30.153Z,14.67
2019-02-21T13:23:42.921Z,14.71
2019-02-21T13:25:53.678Z,14.82
2019-02-21T13:28:04.483Z,14.81
2019-02-21T13:30:56.939Z,14.83
2019-02-21T13:33:07.768Z,14.83
2019-02-21T13:35:18.574Z,14.77
2019-02-21T13:37:29.446Z,14.68
2019-02-21T13:39:40.195Z,14.71
2019-02-21T13:41:51.018Z,14.69
2019-02-21T13:44:01.824Z,14.72
2019-02-21T13:46:12.632Z,14.69
2019-02-21T13:48:23.462Z,14.69
2019-02-21T13:50:34.359Z,14.75
2019-02-21T13:52:45.277Z,14.72
2019-02-21T13:54:56.180Z,14.73
2019-02-21T13:57:06.982Z,14.73
2019-02-21T13:59:17.838Z,14.66
2019-02-21T14:01:28.650Z,14.64
2019-02-21T14:03:39.505Z,14.63
2019-02-21T14:05:50.314Z,14.61
2019-02-21T14:08:01.275Z,14.58
2019-02-21T14:10:53.756Z,14.56
2019-02-21T14:13:04.570Z,14.59
2019-02-21T14:15:57.026Z,14.45
2019-02-21T14:18:07.845Z,14.36
2019-02-21T14:20:18.700Z,14.27
2019-02-21T14:22:29.530Z,14.27
2019-02-21T14:24:40.397Z,14.18
2019-02-21T14:26:51.175Z,14.12
2019-02-21T14:29:01.998Z,14.11
2019-02-21T14:31:12.788Z,14.08
2019-02-21T14:33:23.626Z,14.08
2019-02-21T14:35:34.435Z,14.03
2019-02-21T14:37:45.250Z,14.07
2019-02-21T14:39:56.100Z,14.07
2019-02-21T14:42:06.899Z,14.07
2019-02-21T14:44:17.708Z,14.07
2019-02-21T14:46:28.546Z,14.10
2019-02-21T14:48:39.344Z,14.14
2019-02-21T14:50:50.181Z,14.13
2019-02-21T14:53:00.992Z,14.14
2019-02-21T14:55:53.463Z,14.16
2019-02-21T14:58:04.261Z,14.17
2019-02-21T15:00:56.774Z,14.08
2019-02-21T15:03:07.665Z,14.02
2019-02-21T15:06:00.198Z,13.96
2019-02-21T15:08:10.981Z,13.98
2019-02-21T15:10:21.916Z,13.93
2019-02-21T15:12:35.510Z,13.90
2019-02-21T15:14:45.437Z,13.84
2019-02-21T15:16:56.315Z,13.83
2019-02-21T15:19:07.106Z,13.84
2019-02-21T15:21:18.075Z,13.90
2019-02-21T15:23:28.895Z,13.88
2019-02-21T15:25:39.739Z,13.88
2019-02-21T15:27:50.544Z,13.86
2019-02-21T15:30:01.342Z,13.89
2019-02-21T15:32:14.299Z,13.87
2019-02-21T15:34:24.910Z,13.88
2019-02-21T15:36:38.535Z,13.85
2019-02-21T15:38:48.437Z,13.83
2019-02-21T15:40:59.271Z,13.80
2019-02-21T15:43:10.065Z,13.71
2019-02-21T15:46:02.551Z,13.64
2019-02-21T15:48:13.369Z,13.62
2019-02-21T15:50:24.216Z,13.58
2019-02-21T15:52:35.040Z,13.58
2019-02-21T15:54:45.858Z,13.52
2019-02-21T15:56:56.671Z,13.47
2019-02-21T15:59:07.537Z,13.41
2019-02-21T16:01:18.334Z,13.38
2019-02-21T16:03:29.185Z,13.35
2019-02-21T16:05:40.020Z,13.32
2019-02-21T16:07:50.827Z,13.29
2019-02-21T16:10:43.291Z,13.25
2019-02-21T16:12:54.373Z,13.24
2019-02-21T16:15:48.516Z,13.19
2019-02-21T16:17:59.324Z,13.17
2019-02-21T16:20:52.988Z,13.08
2019-02-21T16:23:04.528Z,13.05
2019-02-21T16:25:56.983Z,13.02
2019-02-21T16:28:07.840Z,12.97
2019-02-21T16:30:18.609Z,12.85
2019-02-21T16:32:29.424Z,12.79
2019-02-21T16:34:40.260Z,12.72
2019-02-21T16:37:01.816Z,12.65
2019-02-21T16:39:04.481Z,12.60
2019-02-21T16:41:16.814Z,12.53
2019-02-21T16:43:27.651Z,12.51
2019-02-21T16:45:43.657Z,12.45
2019-02-21T16:47:51.206Z,12.40
2019-02-21T16:50:43.706Z,12.35
2019-02-21T16:52:54.513Z,12.31
2019-02-21T16:55:46.964Z,12.23
2019-02-21T16:57:57.786Z,12.19
2019-02-21T17:00:54.699Z,12.13
2019-02-21T17:03:44.617Z,12.04
2019-02-21T17:05:55.583Z,11.98
2019-02-21T17:08:06.389Z,11.81
2019-02-21T17:10:17.209Z,11.63
2019-02-21T17:12:28.038Z,11.42
2019-02-21T17:14:38.855Z,11.22
2019-02-21T17:16:49.687Z,11.07
2019-02-21T17:19:00.500Z,10.95
2019-02-21T17:21:11.386Z,10.80
2019-02-21T17:23:23.166Z,10.72
2019-02-21T17:25:35.045Z,10.65
2019-02-21T17:28:27.516Z,10.63
2019-02-21T17:30:38.386Z,10.60
2019-02-21T17:32:49.219Z,10.45
2019-02-21T17:35:00.016Z,10.36
2019-02-21T17:37:10.873Z,10.25
2019-02-21T17:39:21.681Z,10.21
2019-02-21T17:41:32.543Z,10.11
2019-02-21T17:43:43.333Z,10.10
2019-02-21T17:45:54.148Z,10.20
2019-02-21T17:48:04.975Z,10.16
2019-02-21T17:50:57.493Z,10.09
2019-02-21T17:53:08.337Z,10.04
2019-02-21T17:55:19.160Z,9.99
2019-02-21T17:57:30.089Z,10.05
2019-02-21T17:59:40.898Z,10.01
2019-02-21T18:01:51.724Z,9.94
2019-02-21T18:04:02.534Z,9.91
2019-02-21T18:06:13.368Z,9.86
2019-02-21T18:08:24.169Z,9.85
2019-02-21T18:10:34.981Z,9.84
2019-02-21T18:12:45.812Z,9.82
2019-02-21T18:14:56.676Z,9.81
2019-02-21T18:17:07.589Z,9.84
2019-02-21T18:19:18.497Z,9.83
2019-02-21T18:21:29.330Z,9.78
2019-02-21T18:23:40.162Z,9.77
2019-02-21T18:26:12.132Z,9.74
2019-02-21T18:28:22.976Z,9.73
2019-02-21T18:30:33.768Z,9.72
2019-02-21T18:32:44.587Z,9.67
2019-02-21T18:34:55.468Z,9.66
2019-02-21T18:37:06.291Z,9.65
2019-02-21T18:41:39.356Z,9.60
2019-02-21T18:43:50.201Z,9.57
2019-02-21T18:46:01.033Z,9.54
2019-02-21T18:48:11.978Z,9.55
2019-02-21T18:50:22.892Z,9.55
2019-02-21T18:52:33.728Z,9.50
2019-02-21T18:54:44.642Z,9.38
2019-02-21T18:56:55.526Z,9.40
2019-02-21T18:59:06.511Z,9.44
2019-02-21T19:01:17.344Z,9.49
2019-02-21T19:03:28.151Z,9.46
2019-02-21T19:05:38.977Z,9.45
2019-02-21T19:07:58.268Z,9.43
2019-02-21T19:10:44.206Z,9.46
2019-02-21T19:12:55.133Z,9.46
2019-02-21T19:15:47.636Z,9.53
2019-02-21T19:17:58.432Z,9.58
2019-02-21T19:20:50.969Z,9.56
2019-02-21T19:23:01.899Z,9.54
2019-02-21T19:25:12.958Z,9.48
2019-02-21T19:27:23.861Z,9.50
2019-02-21T19:29:34.742Z,9.50
2019-02-21T19:31:45.679Z,9.55
2019-02-21T19:33:56.601Z,9.60
2019-02-21T19:36:07.639Z,9.63
2019-02-21T19:38:18.441Z,9.65
2019-02-21T19:40:29.281Z,9.69
2019-02-21T19:42:40.114Z,9.70
2019-02-21T19:44:50.954Z,9.68
2019-02-21T19:47:01.809Z,9.68
2019-02-21T19:49:12.719Z,9.69
2019-02-21T19:51:23.572Z,9.68
2019-02-21T19:53:34.399Z,9.63
2019-02-21T19:55:45.270Z,9.62
2019-02-21T19:57:56.086Z,9.65
2019-02-21T20:00:48.584Z,9.65
2019-02-21T20:03:41.054Z,9.66
2019-02-21T20:05:51.997Z,9.67
2019-02-21T20:08:08.538Z,9.66
2019-02-21T20:10:15.688Z,9.63
2019-02-21T20:12:26.559Z,9.61
2019-02-21T20:14:37.368Z,9.61
2019-02-21T20:16:48.229Z,9.64
2019-02-21T20:18:59.144Z,9.66
2019-02-21T20:21:09.976Z,9.65
2019-02-21T20:23:20.836Z,9.65
2019-02-21T20:25:31.653Z,9.69
2019-02-21T20:27:42.585Z,9.69
2019-02-21T20:29:53.511Z,9.67
2019-02-21T20:32:04.443Z,9.67
2019-02-21T20:34:15.294Z,9.70
2019-02-21T20:36:26.139Z,9.69
2019-02-21T20:38:36.981Z,9.69
2019-02-21T20:40:47.774Z,9.69
2019-02-21T20:42:58.635Z,9.66
2019-02-21T20:45:29.311Z,9.65
2019-02-21T20:47:40.177Z,9.66
2019-02-21T20:49:50.985Z,9.66
2019-02-21T20:52:01.789Z,9.63
2019-02-21T20:54:13.021Z,9.59
2019-02-21T20:56:25.383Z,9.61
2019-02-21T20:58:36.213Z,9.63
2019-02-21T21:00:47.202Z,9.65
2019-02-21T21:02:58.018Z,9.63
2019-02-21T21:05:08.828Z,9.58
2019-02-21T21:07:25.125Z,9.57
2019-02-21T21:09:32.486Z,9.58
2019-02-21T21:11:43.397Z,9.59
2019-02-21T21:13:54.223Z,9.60
2019-02-21T21:16:05.007Z,9.58
2019-02-21T21:18:16.042Z,9.58
2019-02-21T21:20:26.911Z,9.60
2019-02-21T21:22:37.722Z,9.56
2019-02-21T21:24:48.542Z,9.53
2019-02-21T21:26:59.367Z,9.52
2019-02-21T21:29:10.282Z,9.50
2019-02-21T21:31:21.118Z,9.42
2019-02-21T21:33:31.938Z,9.42
2019-02-21T21:35:42.955Z,9.42
2019-02-21T21:37:53.756Z,9.49
2019-02-21T21:40:46.252Z,9.50
2019-02-21T21:42:57.149Z,9.49
2019-02-21T21:45:49.657Z,9.36
2019-02-21T21:48:00.571Z,9.37
2019-02-21T21:50:53.084Z,9.42
2019-02-21T21:53:03.896Z,9.44
2019-02-21T21:55:14.782Z,9.47
2019-02-21T21:57:25.598Z,9.46
2019-02-21T21:59:56.282Z,9.47
2019-02-21T22:02:07.206Z,9.45
2019-02-21T22:04:18.022Z,9.47
2019-02-21T22:06:28.846Z,9.47
2019-02-21T22:08:39.668Z,9.51
2019-02-21T22:10:50.465Z,9.56
2019-02-21T22:13:01.305Z,9.57
2019-02-21T22:15:31.975Z,9.62
2019-02-21T22:17:42.804Z,9.54
2019-02-21T22:19:53.615Z,9.58
2019-02-21T22:22:04.546Z,9.65
2019-02-21T22:24:15.359Z,9.70
2019-02-21T22:26:26.170Z,9.74
2019-02-21T22:28:37.003Z,9.76
2019-02-21T22:30:47.812Z,9.81
2019-02-21T22:32:58.647Z,9.87
2019-02-21T22:35:09.544Z,9.90
2019-02-21T22:37:20.378Z,9.95
2019-02-21T22:39:31.171Z,10.02
2019-02-21T22:41:41.967Z,10.07
2019-02-21T22:43:52.788Z,10.12
2019-02-21T22:46:03.608Z,10.13
2019-02-21T22:48:14.424Z,10.08
2019-02-21T22:50:26.938Z,10.06
2019-02-21T22:52:37.970Z,10.01
2019-02-21T22:54:48.832Z,9.95
2019-02-21T22:56:59.631Z,9.90
2019-02-21T22:59:10.454Z,9.88
2019-02-21T23:02:02.911Z,9.86
2019-02-21T23:04:55.380Z,9.83
2019-02-21T23:07:47.908Z,9.86
2019-02-21T23:09:58.763Z,9.89
2019-02-21T23:12:09.694Z,9.91
2019-02-21T23:14:20.614Z,9.83
2019-02-21T23:16:31.536Z,9.81
2019-02-21T23:18:42.357Z,9.82
2019-02-21T23:20:53.160Z,9.86
2019-02-21T23:23:03.985Z,9.91
2019-02-21T23:25:14.834Z,9.92
2019-02-21T23:27:25.636Z,9.93
2019-02-21T23:29:36.542Z,9.90
2019-02-21T23:31:47.365Z,9.89
2019-02-21T23:36:30.586Z,9.91
2019-02-21T23:38:41.392Z,9.93
2019-02-21T23:40:52.263Z,9.93
2019-02-21T23:43:03.181Z,9.93
2019-02-21T23:45:13.990Z,9.94
2019-02-21T23:47:24.794Z,9.95
2019-02-21T23:49:35.601Z,9.97
2019-02-21T23:51:46.429Z,9.95
2019-02-21T23:54:03.006Z,9.95
2019-02-21T23:56:10.046Z,9.93
2019-02-21T23:58:20.956Z,9.95
